createdAt,value
2018-04-08T00:00:26.725Z,55.60
2018-04-08T00:02:56.220Z,55.60
2018-04-08T00:05:25.976Z,53.70
2018-04-08T00:07:54.762Z,53.70
2018-04-08T00:10:22.653Z,53.20
2018-04-08T00:12:50.138Z,52.90
2018-04-08T00:15:18.426Z,52.50
2018-04-08T00:17:45.887Z,52.40
2018-04-08T00:20:14.190Z,52.40
2018-04-08T00:22:41.622Z,52.40
2018-04-08T00:25:11.126Z,52.10
2018-04-08T00:27:38.576Z,52.10
2018-04-08T00:30:06.881Z,52.10
2018-04-08T00:32:34.329Z,52.00
2018-04-08T00:35:03.878Z,51.90
2018-04-08T00:37:31.331Z,51.90
2018-04-08T00:39:58.786Z,51.90
2018-04-08T00:42:29.262Z,51.90
2018-04-08T00:44:57.583Z,51.80
2018-04-08T00:47:27.054Z,51.80
2018-04-08T00:49:54.491Z,51.80
2018-04-08T00:52:22.787Z,51.70
2018-04-08T00:54:50.291Z,51.60
2018-04-08T00:57:17.741Z,51.50
2018-04-08T00:59:45.587Z,51.60
2018-04-08T01:02:15.060Z,51.50
2018-04-08T01:04:43.953Z,51.60
2018-04-08T01:07:11.437Z,51.50
2018-04-08T01:09:38.899Z,51.60
2018-04-08T01:12:12.814Z,51.50
2018-04-08T01:14:41.353Z,51.70
2018-04-08T01:17:09.647Z,52.20
2018-04-08T01:19:37.145Z,51.50
2018-04-08T01:22:04.595Z,51.50
2018-04-08T01:24:33.072Z,51.50
2018-04-08T01:27:00.542Z,51.80
2018-04-08T01:29:29.246Z,51.80
2018-04-08T01:31:58.725Z,52.10
2018-04-08T01:34:26.522Z,52.60
2018-04-08T01:36:54.010Z,53.00
2018-04-08T01:39:22.284Z,53.40
2018-04-08T01:41:50.568Z,53.20
2018-04-08T01:44:18.852Z,52.80
2018-04-08T01:46:53.550Z,52.70
2018-04-08T01:49:20.997Z,52.60
2018-04-08T01:51:48.834Z,52.20
2018-04-08T01:54:16.290Z,51.90
2018-04-08T01:56:44.997Z,51.70
2018-04-08T01:59:12.850Z,51.50
2018-04-08T02:01:45.617Z,51.30
2018-04-08T02:04:13.088Z,51.10
2018-04-08T02:06:40.562Z,51.00
2018-04-08T02:09:08.450Z,51.00
2018-04-08T02:11:37.759Z,51.50
2018-04-08T02:14:10.028Z,51.50
2018-04-08T02:16:38.329Z,52.10
2018-04-08T02:19:05.753Z,52.00
2018-04-08T02:21:33.513Z,51.90
2018-04-08T02:24:01.786Z,52.60
2018-04-08T02:26:30.465Z,52.60
2018-04-08T02:28:57.921Z,52.50
2018-04-08T02:31:29.784Z,52.60
2018-04-08T02:33:57.305Z,52.30
2018-04-08T02:36:24.762Z,52.00
2018-04-08T02:38:55.720Z,51.40
2018-04-08T02:41:23.277Z,51.40
2018-04-08T02:43:51.090Z,51.40
2018-04-08T02:46:19.412Z,51.20
2018-04-08T02:48:46.862Z,51.10
2018-04-08T02:51:15.139Z,51.10
2018-04-08T02:53:43.400Z,51.10
2018-04-08T02:56:14.542Z,51.10
2018-04-08T02:58:42.020Z,51.10
2018-04-08T03:01:10.505Z,51.10
2018-04-08T03:03:37.994Z,51.00
2018-04-08T03:06:05.458Z,50.90
2018-04-08T03:08:33.879Z,51.00
2018-04-08T03:11:03.409Z,50.90
2018-04-08T03:13:32.920Z,50.90
2018-04-08T03:16:04.233Z,51.10
2018-04-08T03:18:31.701Z,51.40
2018-04-08T03:21:03.042Z,51.60
2018-04-08T03:23:31.557Z,52.30
2018-04-08T03:26:03.204Z,53.00
2018-04-08T03:28:31.582Z,53.50
2018-04-08T03:31:00.061Z,53.70
2018-04-08T03:33:27.550Z,54.00
2018-04-08T03:35:58.693Z,54.50
2018-04-08T03:38:26.138Z,55.20
2018-04-08T03:40:53.598Z,56.00
2018-04-08T03:43:24.482Z,56.20
2018-04-08T03:45:51.938Z,56.60
2018-04-08T03:48:20.259Z,57.30
2018-04-08T03:50:52.514Z,57.50
2018-04-08T03:53:20.093Z,57.50
2018-04-08T03:55:47.554Z,57.50
2018-04-08T03:58:15.003Z,57.70
2018-04-08T04:00:43.514Z,58.20
2018-04-08T04:03:14.181Z,59.00
2018-04-08T04:05:42.793Z,59.50
2018-04-08T04:08:10.350Z,59.40
2018-04-08T04:10:37.825Z,59.50
2018-04-08T04:13:05.281Z,60.00
2018-04-08T04:15:38.902Z,60.20
2018-04-08T04:18:18.274Z,60.50
2018-04-08T04:20:57.782Z,61.70
2018-04-08T04:23:38.159Z,60.80
2018-04-08T04:26:21.850Z,62.30
2018-04-08T04:28:49.747Z,62.30
2018-04-08T04:31:17.266Z,63.00
2018-04-08T04:33:49.202Z,62.90
2018-04-08T04:36:18.450Z,63.40
2018-04-08T04:38:47.810Z,63.80
2018-04-08T04:41:15.736Z,63.50
2018-04-08T04:43:44.416Z,63.80
2018-04-08T04:46:13.246Z,62.70
2018-04-08T04:48:42.498Z,62.30
2018-04-08T04:51:10.018Z,63.10
2018-04-08T04:56:10.503Z,64.20
2018-04-08T04:58:39.104Z,64.60
2018-04-08T05:01:06.974Z,64.50
2018-04-08T05:03:36.243Z,64.60
2018-04-08T05:06:05.555Z,65.10
2018-04-08T05:08:36.173Z,65.00
2018-04-08T05:11:06.392Z,65.40
2018-04-08T05:13:34.443Z,65.40
2018-04-08T05:16:17.269Z,65.60
2018-04-08T05:18:46.487Z,65.70
2018-04-08T05:21:14.385Z,65.60
2018-04-08T05:23:42.311Z,65.70
2018-04-08T05:26:09.868Z,66.00
2018-04-08T05:28:37.590Z,66.10
2018-04-08T05:31:06.861Z,66.20
2018-04-08T05:33:35.653Z,66.80
2018-04-08T05:36:05.165Z,65.80
2018-04-08T05:38:34.084Z,66.00
2018-04-08T05:41:02.765Z,66.40
2018-04-08T05:43:33.866Z,66.30
2018-04-08T05:46:01.386Z,66.50
2018-04-08T05:48:29.660Z,66.90
2018-04-08T05:50:57.130Z,66.80
2018-04-08T05:53:25.601Z,66.90
2018-04-08T05:55:54.365Z,67.90
2018-04-08T05:58:21.855Z,66.60
2018-04-08T06:00:49.446Z,66.70
2018-04-08T06:03:20.577Z,66.50
2018-04-08T06:05:54.134Z,66.30
2018-04-08T06:08:21.979Z,66.40
2018-04-08T06:10:49.775Z,66.30
2018-04-08T06:13:17.829Z,66.20
2018-04-08T06:15:46.059Z,66.20
2018-04-08T06:20:50.515Z,65.90
2018-04-08T06:23:18.017Z,66.20
2018-04-08T06:25:53.299Z,66.00
2018-04-08T06:28:21.749Z,66.10
2018-04-08T06:30:53.856Z,66.40
2018-04-08T06:33:21.363Z,66.40
2018-04-08T06:35:50.680Z,65.90
2018-04-08T06:38:18.133Z,65.90
2018-04-08T06:40:46.479Z,66.30
2018-04-08T06:43:15.816Z,66.00
2018-04-08T06:45:43.656Z,65.30
2018-04-08T06:48:12.838Z,66.10
2018-04-08T06:50:41.511Z,66.10
2018-04-08T06:53:09.626Z,66.00
2018-04-08T06:55:37.378Z,65.70
2018-04-08T06:58:05.027Z,66.20
2018-04-08T07:00:32.517Z,66.50
2018-04-08T07:03:01.580Z,65.90
2018-04-08T07:05:31.206Z,66.60
2018-04-08T07:07:58.691Z,66.70
2018-04-08T07:10:26.408Z,66.70
2018-04-08T07:12:53.868Z,65.40
2018-04-08T07:15:21.342Z,64.90
2018-04-08T07:17:49.667Z,66.70
2018-04-08T07:20:17.234Z,66.50
2018-04-08T07:22:44.716Z,66.70
2018-04-08T07:25:16.677Z,66.60
2018-04-08T07:27:47.778Z,64.40
2018-04-08T07:30:19.123Z,64.50
2018-04-08T07:32:47.424Z,64.80
2018-04-08T07:35:15.114Z,64.70
2018-04-08T07:37:42.807Z,64.80
2018-04-08T07:40:11.255Z,64.60
2018-04-08T07:42:39.525Z,64.60
2018-04-08T07:45:08.266Z,64.50
2018-04-08T07:47:36.089Z,64.90
2018-04-08T07:50:04.507Z,65.40
2018-04-08T07:52:33.141Z,64.80
2018-04-08T07:55:06.234Z,64.70
2018-04-08T07:57:34.955Z,65.60
2018-04-08T08:00:03.997Z,65.00
2018-04-08T08:02:31.501Z,64.70
2018-04-08T08:04:59.896Z,64.60
2018-04-08T08:07:27.759Z,64.20
2018-04-08T08:09:56.872Z,62.30
2018-04-08T08:12:25.611Z,60.50
2018-04-08T08:14:54.028Z,59.80
2018-04-08T08:17:22.341Z,59.50
2018-04-08T08:19:49.826Z,59.40
2018-04-08T08:22:17.275Z,57.50
2018-04-08T08:24:45.115Z,56.50
2018-04-08T08:27:13.822Z,54.00
2018-04-08T08:29:43.917Z,52.80
2018-04-08T08:32:12.343Z,52.10
2018-04-08T08:34:41.468Z,51.40
2018-04-08T08:37:10.245Z,50.70
2018-04-08T08:39:39.057Z,50.50
2018-04-08T08:42:06.590Z,50.10
2018-04-08T08:44:38.109Z,49.50
2018-04-08T08:47:07.442Z,48.70
2018-04-08T08:49:37.173Z,48.80
2018-04-08T08:52:08.613Z,49.00
2018-04-08T08:54:38.179Z,49.20
2018-04-08T08:57:08.897Z,48.60
2018-04-08T08:59:40.505Z,47.70
2018-04-08T09:02:08.917Z,47.50
2018-04-08T09:04:36.758Z,47.50
2018-04-08T09:07:06.386Z,47.50
2018-04-08T09:09:34.307Z,47.30
2018-04-08T09:12:02.892Z,47.40
2018-04-08T09:14:30.900Z,46.80
2018-04-08T09:16:59.789Z,46.90
2018-04-08T09:19:36.865Z,46.80
2018-04-08T09:25:00.208Z,45.80
2018-04-08T09:30:24.345Z,45.30
2018-04-08T09:32:54.067Z,45.30
2018-04-08T09:35:22.382Z,45.60
2018-04-08T09:37:51.530Z,44.20
2018-04-08T09:40:25.646Z,44.50
2018-04-08T09:42:55.826Z,44.50
2018-04-08T09:45:24.789Z,43.80
2018-04-08T09:47:53.334Z,43.40
2018-04-08T09:50:21.607Z,44.20
2018-04-08T09:52:49.631Z,44.20
2018-04-08T09:55:18.470Z,43.80
2018-04-08T09:58:03.007Z,43.70
2018-04-08T10:00:51.130Z,44.10
2018-04-08T10:03:31.957Z,44.00
2018-04-08T10:05:59.902Z,43.70
2018-04-08T10:08:27.382Z,42.60
2018-04-08T10:10:55.945Z,41.80
2018-04-08T10:13:23.678Z,41.50
2018-04-08T10:15:51.823Z,42.20
2018-04-08T10:18:20.136Z,42.30
2018-04-08T10:20:47.607Z,43.00
2018-04-08T10:23:16.771Z,43.00
2018-04-08T10:25:44.367Z,41.80
2018-04-08T10:28:12.294Z,41.80
2018-04-08T10:30:39.846Z,41.40
2018-04-08T10:33:08.103Z,41.40
2018-04-08T10:35:35.562Z,41.10
2018-04-08T10:38:03.073Z,40.70
2018-04-08T10:40:32.595Z,40.40
2018-04-08T10:43:17.793Z,40.40
2018-04-08T10:54:35.493Z,39.30
2018-04-08T10:57:06.102Z,39.30
2018-04-08T10:59:35.541Z,40.20
2018-04-08T11:02:03.048Z,38.90
2018-04-08T11:04:31.738Z,38.60
2018-04-08T11:06:59.189Z,38.30
2018-04-08T11:09:26.646Z,38.00
2018-04-08T13:57:22.359Z,33.80
2018-04-08T13:59:51.097Z,34.20
2018-04-08T14:05:09.395Z,33.50
2018-04-08T14:07:37.809Z,34.30
2018-04-08T14:10:12.127Z,33.20
2018-04-08T14:12:55.737Z,33.00
2018-04-08T14:15:30.591Z,32.70
2018-04-08T14:29:57.142Z,32.00
2018-04-08T14:38:14.931Z,32.40
2018-04-08T14:40:45.424Z,32.50
2018-04-08T14:43:13.784Z,32.80
2018-04-08T14:45:43.582Z,33.20
2018-04-08T14:48:11.550Z,33.70
2018-04-08T14:50:40.835Z,33.80
2018-04-08T14:53:09.215Z,33.30
2018-04-08T14:56:01.142Z,32.90
2018-04-08T14:58:28.661Z,33.20
2018-04-08T15:01:01.993Z,33.60
2018-04-08T15:03:31.467Z,33.40
2018-04-08T15:08:32.579Z,33.60
2018-04-08T15:11:02.555Z,33.80
2018-04-08T15:13:32.311Z,34.10
2018-04-08T15:15:59.849Z,34.50
2018-04-08T15:18:28.210Z,33.60
2018-04-08T15:20:55.651Z,33.60
2018-04-08T15:23:23.122Z,34.30
2018-04-08T15:25:50.569Z,34.30
2018-04-08T15:28:18.026Z,34.30
2018-04-08T15:30:45.499Z,34.20
2018-04-08T15:33:13.814Z,34.00
2018-04-08T15:35:41.290Z,33.80
2018-04-08T15:38:08.741Z,33.90
2018-04-08T15:40:36.182Z,33.60
2018-04-08T15:43:05.590Z,33.80
2018-04-08T15:45:33.134Z,33.40
2018-04-08T15:48:01.418Z,33.40
2018-04-08T15:50:30.932Z,33.40
2018-04-08T15:52:58.429Z,33.70
2018-04-08T15:55:26.878Z,33.60
2018-04-08T15:57:54.399Z,33.40
2018-04-08T16:00:21.842Z,34.00
2018-04-08T16:02:49.342Z,32.50
2018-04-08T16:05:19.278Z,32.30
2018-04-08T16:07:47.413Z,32.50
2018-04-08T16:10:15.697Z,32.40
2018-04-08T16:12:43.990Z,32.50
2018-04-08T16:15:13.015Z,32.40
2018-04-08T16:17:40.575Z,32.20
2018-04-08T16:20:08.394Z,32.10
2018-04-08T16:22:39.504Z,31.40
2018-04-08T16:25:08.674Z,31.40
2018-04-08T16:27:38.428Z,31.80
2018-04-08T16:30:10.297Z,31.80
2018-04-08T16:32:37.766Z,31.80
2018-04-08T16:35:06.133Z,32.00
2018-04-08T16:37:34.516Z,32.10
2018-04-08T16:40:03.098Z,32.50
2018-04-08T16:42:33.893Z,33.20
2018-04-08T16:45:02.503Z,33.20
2018-04-08T16:47:32.042Z,33.20
2018-04-08T16:50:00.449Z,33.60
2018-04-08T16:52:28.709Z,33.90
2018-04-08T16:54:57.120Z,33.90
2018-04-08T16:57:24.594Z,34.30
2018-04-08T16:59:52.074Z,34.40
2018-04-08T17:02:19.537Z,34.40
2018-04-08T17:04:50.797Z,34.50
2018-04-08T17:07:24.793Z,34.40
2018-04-08T17:09:52.300Z,34.30
2018-04-08T17:12:20.546Z,34.30
2018-04-08T17:14:50.484Z,34.30
2018-04-08T17:17:18.742Z,34.60
2018-04-08T17:19:46.236Z,34.60
2018-04-08T17:22:14.050Z,34.40
2018-04-08T17:24:42.343Z,35.50
2018-04-08T17:27:10.862Z,35.30
2018-04-08T17:29:41.264Z,35.10
2018-04-08T17:32:13.004Z,35.90
2018-04-08T17:34:42.258Z,35.90
2018-04-08T17:37:11.090Z,36.70
2018-04-08T17:39:39.748Z,37.60
2018-04-08T17:42:08.442Z,38.00
2018-04-08T17:44:38.687Z,37.90
2018-04-08T17:47:07.355Z,38.80
2018-04-08T17:49:35.938Z,39.40
2018-04-08T17:52:06.492Z,39.90
2018-04-08T17:57:08.230Z,40.70
2018-04-08T17:59:36.822Z,41.10
2018-04-08T18:02:05.059Z,42.40
2018-04-08T18:04:33.607Z,42.10
2018-04-08T18:09:44.547Z,43.10
2018-04-08T18:12:12.375Z,44.20
2018-04-08T18:14:43.359Z,44.10
2018-04-08T18:17:12.274Z,45.10
2018-04-08T18:19:43.123Z,45.00
2018-04-08T18:22:10.817Z,45.30
2018-04-08T18:24:38.417Z,45.70
2018-04-08T18:27:05.862Z,46.90
2018-04-08T18:29:33.343Z,46.70
2018-04-08T18:32:00.827Z,47.30
2018-04-08T18:34:28.444Z,47.70
2018-04-08T18:36:56.033Z,48.00
2018-04-08T18:39:24.871Z,48.70
2018-04-08T18:41:52.418Z,48.80
2018-04-08T18:44:20.328Z,49.20
2018-04-08T18:46:49.927Z,49.50
2018-04-08T18:49:17.822Z,49.70
2018-04-08T18:51:47.021Z,49.90
2018-04-08T18:54:14.880Z,49.80
2018-04-08T18:56:42.387Z,50.00
2018-04-08T18:59:11.685Z,50.60
2018-04-08T19:01:40.468Z,50.90
2018-04-08T19:04:08.436Z,51.20
2018-04-08T19:06:36.801Z,51.50
2018-04-08T19:09:05.862Z,52.30
2018-04-08T19:11:38.036Z,52.60
2018-04-08T19:14:06.097Z,53.20
2018-04-08T19:19:26.957Z,53.60
2018-04-08T19:21:54.881Z,53.50
2018-04-08T19:24:24.880Z,53.30
2018-04-08T19:26:52.416Z,53.40
2018-04-08T19:29:20.416Z,53.20
2018-04-08T19:31:47.939Z,53.30
2018-04-08T19:34:17.081Z,53.30
2018-04-08T19:36:44.983Z,53.90
2018-04-08T19:39:13.284Z,54.90
2018-04-08T19:41:41.835Z,54.80
2018-04-08T19:44:09.372Z,55.30
2018-04-08T19:46:37.193Z,55.80
2018-04-08T19:49:05.694Z,55.90
2018-04-08T19:51:33.290Z,56.20
2018-04-08T19:54:00.808Z,56.60
2018-04-08T19:56:29.224Z,57.00
2018-04-08T19:58:56.738Z,56.90
2018-04-08T20:01:24.731Z,57.20
2018-04-08T20:03:52.266Z,57.70
2018-04-08T20:06:20.086Z,57.90
2018-04-08T20:08:48.648Z,58.10
2018-04-08T20:11:16.114Z,58.40
2018-04-08T20:13:43.639Z,58.90
2018-04-08T20:16:12.077Z,58.90
2018-04-08T20:18:39.601Z,59.60
2018-04-08T20:21:07.355Z,59.30
2018-04-08T20:23:34.816Z,59.70
2018-04-08T20:26:03.079Z,60.30
2018-04-08T20:28:31.587Z,60.20
2018-04-08T20:30:59.059Z,60.80
2018-04-08T20:33:32.147Z,60.80
2018-04-08T21:03:27.941Z,64.50
2018-04-08T21:05:56.254Z,64.80
2018-04-08T21:08:25.085Z,64.70
2018-04-08T21:10:57.383Z,65.20
2018-04-08T21:13:25.936Z,65.20
2018-04-08T21:15:53.395Z,65.80
2018-04-08T21:18:20.997Z,65.60
2018-04-08T21:20:48.882Z,65.90
2018-04-08T21:23:16.377Z,66.40
2018-04-08T21:25:44.203Z,66.70
2018-04-08T21:28:12.541Z,66.70
2018-04-08T21:30:39.986Z,66.60
2018-04-08T21:33:07.441Z,67.10
2018-04-08T21:35:34.929Z,67.20
2018-04-08T21:38:02.574Z,67.00
2018-04-08T21:40:31.030Z,67.10
2018-04-08T21:42:59.311Z,67.30
2018-04-08T21:45:27.581Z,67.50
2018-04-08T21:47:55.888Z,67.50
2018-04-08T21:50:23.354Z,67.50
2018-04-08T21:52:50.812Z,67.70
2018-04-08T21:55:19.640Z,67.90
2018-04-08T21:57:48.146Z,68.20
2018-04-08T22:00:16.464Z,69.50
2018-04-08T22:02:44.180Z,68.60
2018-04-08T22:05:12.399Z,68.90
2018-04-08T22:07:39.861Z,68.90
2018-04-08T22:10:07.373Z,69.10
2018-04-08T22:12:34.851Z,69.40
2018-04-08T22:15:02.410Z,69.70
2018-04-08T22:17:30.682Z,70.20
2018-04-08T22:19:59.232Z,70.10
2018-04-08T22:22:26.673Z,70.20
2018-04-08T22:24:54.143Z,70.30
2018-04-08T22:27:21.633Z,70.50
2018-04-08T22:29:49.865Z,71.00
2018-04-08T22:32:17.334Z,70.90
2018-04-08T22:34:45.797Z,71.10
2018-04-08T22:37:15.542Z,71.20
2018-04-08T22:39:45.022Z,71.50
2018-04-08T22:42:16.176Z,71.80
2018-04-08T22:44:43.646Z,71.90
2018-04-08T22:47:14.507Z,72.00
2018-04-08T22:49:42.841Z,72.60
2018-04-08T22:52:11.263Z,72.50
2018-04-08T22:54:39.535Z,72.90
2018-04-08T22:57:07.811Z,73.10
2018-04-08T22:59:36.097Z,73.20
2018-04-08T23:02:03.542Z,73.10
2018-04-08T23:04:31.843Z,73.80
2018-04-08T23:07:02.374Z,73.70
2018-04-08T23:09:29.838Z,73.60
2018-04-08T23:12:01.562Z,73.70
2018-04-08T23:14:31.703Z,74.20
2018-04-08T23:16:59.197Z,74.10
2018-04-08T23:19:26.662Z,74.10
2018-04-08T23:21:57.947Z,74.10
2018-04-08T23:24:26.245Z,74.20
2018-04-08T23:26:54.694Z,74.10
2018-04-08T23:29:22.175Z,74.20
2018-04-08T23:31:49.638Z,74.00
2018-04-08T23:34:17.098Z,74.10
2018-04-08T23:36:44.554Z,74.10
2018-04-08T23:39:13.290Z,74.20
2018-04-08T23:41:43.776Z,74.60
2018-04-08T23:44:11.240Z,74.80
2018-04-08T23:46:38.677Z,74.70
2018-04-08T23:49:06.962Z,74.90
2018-04-08T23:51:34.418Z,74.90
2018-04-08T23:54:01.874Z,75.10
2018-04-08T23:56:31.995Z,75.30
2018-04-08T23:59:07.316Z,75.60
